createdAt,value
2022-11-21T05:59:08.035Z,73.12
2022-11-21T06:42:07.663Z,72.71
2022-11-21T08:38:21.857Z,70.65
2022-11-21T08:43:25.023Z,72.21
2022-11-21T08:48:27.911Z,72.29
2022-11-21T08:53:30.890Z,72.05
2022-11-21T08:58:33.860Z,72.33
2022-11-21T09:03:36.833Z,72.26
2022-11-21T09:08:39.880Z,73.28
2022-11-21T09:13:42.895Z,72.67
2022-11-21T09:18:47.087Z,72.57
2022-11-21T09:23:50.152Z,72.29
2022-11-21T09:28:53.140Z,72.80
2022-11-21T09:33:56.128Z,72.75
2022-11-21T09:38:59.156Z,71.80
2022-11-21T09:44:08.343Z,72.41
2022-11-21T09:49:13.769Z,70.98
2022-11-21T09:54:23.781Z,73.23
2022-11-21T09:59:33.219Z,72.51
2022-11-21T10:04:36.120Z,74.81
2022-11-21T10:09:41.704Z,73.97
2022-11-21T10:15:24.401Z,72.64
2022-11-21T10:20:55.458Z,72.15
2022-11-21T10:26:33.838Z,72.19
2022-11-21T10:31:40.548Z,73.61
2022-11-21T10:36:48.927Z,73.93
2022-11-21T10:42:24.686Z,72.75
2022-11-21T10:47:38.099Z,74.71
2022-11-21T10:52:52.067Z,74.52
2022-11-21T10:57:55.685Z,73.40
2022-11-21T11:03:07.419Z,72.46
2022-11-21T11:08:15.187Z,73.33
2022-11-21T11:13:45.902Z,73.38
2022-11-21T11:19:03.459Z,73.79
2022-11-21T11:24:22.159Z,72.18
2022-11-21T11:29:28.122Z,75.56
2022-11-21T11:34:41.647Z,73.16
2022-11-21T11:40:03.959Z,74.24
2022-11-21T11:45:31.182Z,73.80
2022-11-21T11:50:58.003Z,73.10
2022-11-21T11:56:12.220Z,72.46
2022-11-21T12:01:30.221Z,72.07
2022-11-21T12:07:36.009Z,71.66
2022-11-21T12:12:19.247Z,71.03
2022-11-21T12:17:31.623Z,72.97
2022-11-21T12:22:34.570Z,74.92
2022-11-21T12:27:40.703Z,74.29
2022-11-21T12:32:56.028Z,72.22
2022-11-21T12:38:24.864Z,73.22
2022-11-21T12:43:47.147Z,73.69
2022-11-21T12:49:26.938Z,73.67
2022-11-21T12:54:49.580Z,73.45
2022-11-21T13:00:14.264Z,73.80
2022-11-21T13:05:25.140Z,73.88
2022-11-21T13:10:29.243Z,74.97
2022-11-21T13:15:41.544Z,74.21
2022-11-21T13:20:50.235Z,73.58
2022-11-21T13:25:53.228Z,73.80
2022-11-21T13:30:57.370Z,73.26
2022-11-21T13:36:05.960Z,74.54
2022-11-21T13:41:27.133Z,73.95
2022-11-21T13:47:09.650Z,73.65
2022-11-21T13:52:27.436Z,73.23
2022-11-21T13:57:49.742Z,73.61
2022-11-21T14:03:23.358Z,72.45
2022-11-21T14:08:28.211Z,72.95
2022-11-21T14:13:33.032Z,73.58
2022-11-21T14:18:39.007Z,73.19
2022-11-21T14:23:45.590Z,74.89
2022-11-21T14:28:49.030Z,75.03
2022-11-21T14:33:58.636Z,75.91
2022-11-21T14:39:35.480Z,75.49
2022-11-21T14:44:31.840Z,76.98
2022-11-21T14:49:35.074Z,76.31
2022-11-21T15:11:26.257Z,75.79
2022-11-21T15:16:29.938Z,77.37
2022-11-21T15:21:34.044Z,77.38
2022-11-21T15:26:40.973Z,75.98
2022-11-21T15:31:44.261Z,76.19
2022-11-21T15:37:03.914Z,75.56
2022-11-21T15:42:31.549Z,75.27
2022-11-21T15:47:34.558Z,75.41
2022-11-21T15:52:50.828Z,74.87
2022-11-21T15:57:15.394Z,74.91
2022-11-21T15:57:53.778Z,75.28
2022-11-21T16:02:57.102Z,75.47
2022-11-21T16:08:00.111Z,76.40
2022-11-21T16:13:04.050Z,74.50
2022-11-21T16:18:06.939Z,75.24
2022-11-21T16:23:12.069Z,74.62
2022-11-21T16:28:15.684Z,75.22
2022-11-21T16:33:22.892Z,76.94
2022-11-21T16:38:30.299Z,76.96
2022-11-21T16:43:33.260Z,77.04
2022-11-21T16:48:36.274Z,76.46
2022-11-21T16:53:41.177Z,75.75
2022-11-21T16:58:44.489Z,75.25
2022-11-21T17:03:48.988Z,76.10
2022-11-21T17:08:51.927Z,76.08
2022-11-21T17:13:56.555Z,75.82
2022-11-21T17:19:02.194Z,75.54
2022-11-21T17:24:05.454Z,76.04
2022-11-21T17:29:08.442Z,75.93
2022-11-21T17:34:11.913Z,76.48
2022-11-21T17:39:15.048Z,76.63
2022-11-21T17:44:17.977Z,79.45
2022-11-21T17:49:21.262Z,79.16
2022-11-21T17:54:24.414Z,78.04
2022-11-21T17:59:28.670Z,78.09
2022-11-21T18:04:32.249Z,77.45
2022-11-21T18:09:35.439Z,76.30
2022-11-21T18:14:38.424Z,76.38
2022-11-21T18:19:41.438Z,76.56
2022-11-21T18:24:44.481Z,76.14
2022-11-21T18:29:47.594Z,76.23
2022-11-21T18:34:50.829Z,75.80
2022-11-21T18:39:53.754Z,75.61
2022-11-21T18:44:56.758Z,75.45
2022-11-21T18:49:59.724Z,75.41
2022-11-21T18:55:02.792Z,75.32
2022-11-21T19:00:06.890Z,74.38
2022-11-21T19:05:10.083Z,74.94
2022-11-21T19:10:41.286Z,74.71
2022-11-21T19:15:39.440Z,74.82
2022-11-21T19:20:42.544Z,74.72
2022-11-21T19:25:45.525Z,74.67
2022-11-21T19:30:48.566Z,75.04
2022-11-21T19:35:52.282Z,74.83
2022-11-21T19:41:16.406Z,75.26
2022-11-21T19:46:21.944Z,75.25
2022-11-21T19:51:29.515Z,74.36
2022-11-21T19:56:32.617Z,74.97
2022-11-21T20:01:35.668Z,74.99
2022-11-21T20:06:41.817Z,74.88
2022-11-21T20:11:47.513Z,74.52
2022-11-21T20:16:51.731Z,74.89
2022-11-21T20:21:54.741Z,75.02
2022-11-21T20:26:59.323Z,75.22
2022-11-21T20:32:02.740Z,75.31
2022-11-21T20:37:05.990Z,75.68
2022-11-21T20:42:08.974Z,75.32
2022-11-21T20:47:12.414Z,75.17
2022-11-21T20:57:38.275Z,71.58
2022-11-21T21:02:41.214Z,75.15
2022-11-21T21:07:44.457Z,75.74
2022-11-21T21:12:48.722Z,75.79
2022-11-21T21:17:51.803Z,75.80
2022-11-21T21:22:55.955Z,76.40
2022-11-21T21:27:58.930Z,76.28
2022-11-21T21:33:02.256Z,76.50
2022-11-21T21:38:08.982Z,76.73
2022-11-21T21:43:12.502Z,76.50
2022-11-21T21:48:15.753Z,76.26
2022-11-21T21:53:18.824Z,75.97
2022-11-21T21:58:21.772Z,76.10
2022-11-21T22:03:24.728Z,75.82
2022-11-21T22:08:29.542Z,75.86
2022-11-21T22:13:33.471Z,75.90
2022-11-21T22:18:36.706Z,75.93
2022-11-21T22:23:51.239Z,75.85
2022-11-21T22:29:02.720Z,76.39
2022-11-21T22:34:06.224Z,76.94
2022-11-21T22:39:09.625Z,76.48
2022-11-21T22:44:12.620Z,76.85
2022-11-21T22:49:15.770Z,76.55
2022-11-21T22:54:18.691Z,76.41
2022-11-21T22:59:21.631Z,76.58
2022-11-21T23:04:24.596Z,77.29
2022-11-21T23:09:28.033Z,77.32
2022-11-21T23:14:31.419Z,77.50
2022-11-21T23:19:34.482Z,77.77
2022-11-21T23:24:37.421Z,77.72
2022-11-21T23:29:40.352Z,77.33
2022-11-21T23:34:43.428Z,77.10
2022-11-21T23:39:46.392Z,77.38
2022-11-21T23:44:49.481Z,77.77
2022-11-21T23:49:52.385Z,78.14
2022-11-21T23:54:56.286Z,77.87
2022-11-21T23:59:59.253Z,78.52
